Time;durP1;ratioP1;P1;durP2;ratioP2;P2;SDS_P1;SDS_P2;PMS_P1;PMS_P2;Temp;Humidity;BMP_temperature;BMP_pressure;BME280_temperature;BME280_humidity;BME280_pressure;Samples;Min_cycle;Max_cycle;Signal;HPM_P1;HPM_P2
2021/08/21 00:00:50;;;;;;;3.80;3.00;;;15.10;99.90;;;;;;6198822;28;20189;-74
2021/08/21 00:03:54;;;;;;;4.53;3.10;;;15.10;99.90;;;;;;6198642;28;20216;-74
2021/08/21 00:06:57;;;;;;;3.50;3.20;;;15.10;99.90;;;;;;6198900;28;20189;-74
2021/08/21 00:09:59;;;;;;;3.50;3.10;;;15.00;99.90;;;;;;6197098;28;20197;-75
2021/08/21 00:13:02;;;;;;;4.13;3.17;;;15.00;99.90;;;;;;6198539;28;20201;-75
2021/08/21 00:16:04;;;;;;;3.80;3.40;;;15.00;99.90;;;;;;6191266;28;20276;-75
2021/08/21 00:19:08;;;;;;;3.63;3.27;;;15.00;99.90;;;;;;6188937;28;20197;-74
2021/08/21 00:22:10;;;;;;;4.37;3.10;;;14.90;99.90;;;;;;6180825;28;20276;-74
2021/08/21 00:25:13;;;;;;;5.07;3.50;;;14.90;99.90;;;;;;6198111;28;20259;-74
2021/08/21 00:28:15;;;;;;;3.40;3.10;;;14.90;99.90;;;;;;6198381;28;20193;-76
2021/08/21 00:31:20;;;;;;;3.30;3.00;;;14.90;99.90;;;;;;6193979;28;20197;-74
2021/08/21 00:34:22;;;;;;;4.30;3.50;;;14.90;99.90;;;;;;6172630;28;20249;-75
2021/08/21 00:37:25;;;;;;;3.70;3.40;;;14.90;99.90;;;;;;6197983;28;20212;-75
2021/08/21 00:40:27;;;;;;;3.60;3.13;;;14.90;99.90;;;;;;6198011;28;20208;-74
2021/08/21 00:43:31;;;;;;;2.90;2.57;;;14.90;99.90;;;;;;6196459;28;20323;-74
2021/08/21 00:46:52;;;;;;;3.47;3.17;;;14.80;99.90;;;;;;6196403;28;20193;-74
2021/08/21 00:49:55;;;;;;;7.57;3.47;;;14.80;99.90;;;;;;6196497;28;20197;-75
2021/08/21 00:52:57;;;;;;;3.87;3.43;;;14.70;99.90;;;;;;6196139;28;20199;-75
2021/08/21 00:56:02;;;;;;;6.23;3.97;;;14.70;99.90;;;;;;6196511;28;20204;-74
2021/08/21 00:59:11;;;;;;;3.87;3.50;;;14.70;99.90;;;;;;6196549;28;20554;-74
2021/08/21 01:02:15;;;;;;;4.37;3.70;;;14.70;99.90;;;;;;6195983;28;20189;-74
2021/08/21 01:05:19;;;;;;;4.37;3.50;;;14.70;99.90;;;;;;6196745;28;20336;-74
2021/08/21 01:08:24;;;;;;;4.73;3.40;;;14.70;99.90;;;;;;6196247;28;20680;-74
2021/08/21 01:11:35;;;;;;;4.27;3.53;;;14.60;99.90;;;;;;6181393;28;20197;-74
2021/08/21 01:14:38;;;;;;;5.03;3.03;;;14.60;99.90;;;;;;6184965;28;20209;-74
2021/08/21 01:17:41;;;;;;;4.20;3.23;;;14.60;99.90;;;;;;6187149;28;20201;-74
2021/08/21 01:20:46;;;;;;;5.43;3.30;;;14.60;99.90;;;;;;6180634;28;20236;-74
2021/08/21 01:23:53;;;;;;;3.53;3.17;;;14.60;99.90;;;;;;6195619;28;20682;-75
2021/08/21 01:27:04;;;;;;;3.43;3.10;;;14.60;99.90;;;;;;6197666;28;20189;-74
2021/08/21 01:30:16;;;;;;;3.30;3.00;;;14.50;99.90;;;;;;6195701;28;20205;-74
2021/08/21 01:33:29;;;;;;;4.60;3.50;;;14.50;99.90;;;;;;6198569;28;20534;-74
2021/08/21 01:36:47;;;;;;;3.30;3.00;;;14.50;99.90;;;;;;6184532;28;20221;-74
2021/08/21 01:40:08;;;;;;;4.60;3.10;;;14.40;99.90;;;;;;6201978;28;20194;-74
2021/08/21 01:43:14;;;;;;;4.93;3.63;;;14.40;99.90;;;;;;6200565;28;20320;-74
2021/08/21 01:46:23;;;;;;;3.27;2.80;;;14.40;99.90;;;;;;6200283;28;20208;-74
2021/08/21 01:49:58;;;;;;;6.27;3.17;;;14.40;99.90;;;;;;6162963;28;20235;-74
2021/08/21 01:53:00;;;;;;;4.10;3.07;;;14.40;99.90;;;;;;6199325;28;20190;-75
2021/08/21 01:56:11;;;;;;;3.70;3.10;;;14.40;99.90;;;;;;6185667;28;20205;-74
2021/08/21 01:59:42;;;;;;;5.27;3.40;;;14.40;99.90;;;;;;6198043;28;20212;-74
2021/08/21 02:02:49;;;;;;;3.60;3.20;;;14.40;99.90;;;;;;6200470;28;20249;-74
2021/08/21 02:06:03;;;;;;;3.93;3.40;;;14.30;99.90;;;;;;6200221;28;20210;-74
2021/08/21 02:09:06;;;;;;;5.13;3.67;;;14.30;99.90;;;;;;6199968;28;20197;-74
2021/08/21 02:12:08;;;;;;;3.30;2.93;;;14.30;99.90;;;;;;6200142;28;20186;-74
2021/08/21 02:15:16;;;;;;;3.87;2.93;;;14.20;99.90;;;;;;6200662;28;20252;-75
2021/08/21 02:18:25;;;;;;;3.43;2.83;;;14.20;99.90;;;;;;6166081;28;20237;-74
2021/08/21 02:21:40;;;;;;;5.97;3.37;;;14.20;99.90;;;;;;6199756;28;20548;-74
2021/08/21 02:24:51;;;;;;;3.70;3.17;;;14.20;99.90;;;;;;6199764;28;20233;-74
2021/08/21 02:28:06;;;;;;;5.17;3.10;;;14.10;99.90;;;;;;6199773;28;20198;-74
2021/08/21 02:31:08;;;;;;;3.10;2.60;;;14.10;99.90;;;;;;6183315;28;20194;-74
2021/08/21 02:34:11;;;;;;;3.47;3.17;;;14.10;99.90;;;;;;6199306;28;20201;-74
2021/08/21 02:37:14;;;;;;;3.87;3.47;;;14.10;99.90;;;;;;6183151;28;20201;-75
2021/08/21 02:40:16;;;;;;;3.73;3.33;;;14.00;99.90;;;;;;6199604;28;20201;-74
2021/08/21 02:43:20;;;;;;;3.27;2.97;;;14.00;99.90;;;;;;6197921;28;20236;-74
2021/08/21 02:46:22;;;;;;;4.37;3.20;;;14.00;99.90;;;;;;6199120;28;20205;-74
2021/08/21 02:49:25;;;;;;;3.70;3.30;;;14.00;99.90;;;;;;6199059;28;20591;-75
2021/08/21 02:52:27;;;;;;;4.13;3.43;;;14.00;99.90;;;;;;6198686;28;20177;-75
2021/08/21 02:55:29;;;;;;;3.63;3.23;;;13.90;99.90;;;;;;6199102;28;20281;-74
2021/08/21 02:58:32;;;;;;;3.27;2.83;;;13.90;99.90;;;;;;6198788;28;20201;-74
2021/08/21 03:01:35;;;;;;;3.83;3.30;;;14.00;99.90;;;;;;6178152;28;20237;-74
2021/08/21 03:04:37;;;;;;;4.77;3.40;;;13.90;99.90;;;;;;6174555;28;20221;-75
2021/08/21 03:07:40;;;;;;;3.63;3.23;;;13.90;99.90;;;;;;6174417;28;20225;-74
2021/08/21 03:10:45;;;;;;;3.67;3.10;;;13.90;99.90;;;;;;6174650;28;20225;-74
2021/08/21 03:13:48;;;;;;;3.17;2.87;;;13.80;99.90;;;;;;6162284;28;20201;-75
2021/08/21 03:16:50;;;;;;;3.73;2.90;;;13.80;99.90;;;;;;6182936;28;20194;-75
2021/08/21 03:19:53;;;;;;;3.63;3.03;;;13.80;99.90;;;;;;6198504;28;20200;-74
2021/08/21 03:22:57;;;;;;;4.83;2.60;;;13.70;99.90;;;;;;6198067;28;20604;-74
2021/08/21 03:26:04;;;;;;;4.40;3.33;;;13.70;99.90;;;;;;6175709;28;20218;-74
2021/08/21 03:29:09;;;;;;;3.37;2.83;;;13.70;99.90;;;;;;6182406;28;20682;-75
2021/08/21 03:32:17;;;;;;;3.97;3.43;;;13.60;99.90;;;;;;6182183;28;20204;-75
2021/08/21 03:35:23;;;;;;;5.17;2.83;;;13.60;99.90;;;;;;6197626;28;20221;-74
2021/08/21 03:38:25;;;;;;;3.43;3.13;;;13.50;99.90;;;;;;6198040;28;20654;-75
2021/08/21 03:41:35;;;;;;;3.40;3.10;;;13.50;99.90;;;;;;6173599;28;20625;-75
2021/08/21 03:44:39;;;;;;;6.27;3.30;;;13.50;99.90;;;;;;6163018;28;20689;-75
2021/08/21 03:47:42;;;;;;;3.73;3.13;;;13.50;99.90;;;;;;6179763;28;20198;-75
2021/08/21 03:50:46;;;;;;;3.33;3.03;;;13.50;99.90;;;;;;6197579;28;20543;-74
2021/08/21 03:53:49;;;;;;;3.23;2.90;;;13.50;99.90;;;;;;6197507;28;20201;-76
2021/08/21 03:56:52;;;;;;;3.83;3.20;;;13.50;99.90;;;;;;6197164;28;20677;-76
2021/08/21 03:59:57;;;;;;;3.33;3.03;;;13.50;99.90;;;;;;6197241;28;20683;-74
2021/08/21 04:02:59;;;;;;;4.47;3.10;;;13.40;99.90;;;;;;6197415;28;20570;-75
2021/08/21 04:06:07;;;;;;;3.60;3.07;;;13.50;99.90;;;;;;6196959;28;20220;-74
2021/08/21 04:09:10;;;;;;;3.00;2.73;;;13.40;99.90;;;;;;6198680;28;20654;-74
2021/08/21 04:12:18;;;;;;;4.00;3.10;;;13.40;99.90;;;;;;6196712;28;20205;-75
2021/08/21 04:15:40;;;;;;;5.10;2.83;;;13.40;99.90;;;;;;6193308;28;20242;-75
2021/08/21 04:18:42;;;;;;;3.70;3.20;;;13.40;99.90;;;;;;6159171;28;20563;-75
2021/08/21 04:21:46;;;;;;;3.57;3.27;;;13.40;99.90;;;;;;6180509;28;20256;-75
2021/08/21 04:24:56;;;;;;;3.10;2.80;;;13.40;99.90;;;;;;6196511;28;20216;-75
2021/08/21 04:27:59;;;;;;;5.57;2.93;;;13.40;99.90;;;;;;6196111;28;20546;-76
2021/08/21 04:31:01;;;;;;;3.70;3.27;;;13.40;99.90;;;;;;6185346;28;20194;-75
2021/08/21 04:34:07;;;;;;;3.13;2.80;;;13.40;99.90;;;;;;6187295;28;20204;-75
2021/08/21 04:37:10;;;;;;;3.53;3.23;;;13.50;99.90;;;;;;6196712;28;20594;-74
2021/08/21 04:40:16;;;;;;;3.40;3.00;;;13.50;99.90;;;;;;6180702;28;20189;-74
2021/08/21 04:43:19;;;;;;;3.40;2.50;;;13.50;99.90;;;;;;6195621;28;20277;-74
2021/08/21 04:46:23;;;;;;;3.53;2.67;;;13.50;99.90;;;;;;6180319;28;20212;-75
2021/08/21 04:49:26;;;;;;;4.43;2.83;;;13.60;99.90;;;;;;6195830;28;20675;-75
2021/08/21 04:52:30;;;;;;;4.90;2.80;;;13.60;99.90;;;;;;6197508;28;20185;-75
2021/08/21 04:55:34;;;;;;;3.53;2.80;;;13.60;99.90;;;;;;6179924;28;20689;-74
2021/08/21 04:58:36;;;;;;;3.60;3.30;;;13.70;99.90;;;;;;6195855;28;20205;-74
2021/08/21 05:01:40;;;;;;;4.47;3.20;;;13.80;99.90;;;;;;6180133;28;20204;-76
2021/08/21 05:04:43;;;;;;;3.43;2.97;;;13.80;99.90;;;;;;6197221;28;20205;-74
2021/08/21 05:07:45;;;;;;;3.13;2.70;;;13.80;99.90;;;;;;6197625;28;20559;-75
2021/08/21 05:10:49;;;;;;;3.23;2.93;;;13.80;99.90;;;;;;6201093;28;20197;-75
2021/08/21 05:13:52;;;;;;;3.13;2.83;;;13.90;99.90;;;;;;6200315;28;20272;-74
2021/08/21 05:16:54;;;;;;;3.10;2.80;;;13.90;99.90;;;;;;6187059;28;20201;-74
2021/08/21 05:20:17;;;;;;;3.13;2.83;;;13.90;99.90;;;;;;6202001;28;20186;-75
2021/08/21 05:23:38;;;;;;;3.13;2.83;;;14.00;99.90;;;;;;6201936;28;20268;-75
2021/08/21 05:26:40;;;;;;;4.97;2.67;;;14.00;99.90;;;;;;6200433;28;20224;-75
2021/08/21 05:29:44;;;;;;;3.40;3.10;;;14.00;99.90;;;;;;6200626;28;20351;-75
2021/08/21 05:32:46;;;;;;;4.43;2.70;;;14.10;99.90;;;;;;6201881;28;20209;-75
2021/08/21 05:35:49;;;;;;;2.70;2.40;;;14.10;99.90;;;;;;6200569;28;20233;-75
2021/08/21 05:38:52;;;;;;;2.80;2.60;;;14.20;99.90;;;;;;6200391;28;20239;-75
2021/08/21 05:41:54;;;;;;;3.30;3.00;;;14.20;99.90;;;;;;6199853;28;20271;-75
2021/08/21 05:44:56;;;;;;;4.17;2.60;;;14.30;99.90;;;;;;6200230;28;20291;-75
2021/08/21 05:47:59;;;;;;;3.77;2.90;;;14.30;99.90;;;;;;6178336;28;20206;-75
2021/08/21 05:51:01;;;;;;;2.93;2.70;;;14.40;99.90;;;;;;6199986;28;20207;-75
2021/08/21 05:54:03;;;;;;;4.00;2.70;;;14.50;99.90;;;;;;6201068;28;20653;-75
2021/08/21 05:57:05;;;;;;;3.27;2.80;;;14.50;99.90;;;;;;6200016;28;20272;-76
2021/08/21 06:00:09;;;;;;;3.67;2.90;;;14.60;99.90;;;;;;6199887;28;20203;-76
2021/08/21 06:03:16;;;;;;;2.97;2.67;;;14.70;99.90;;;;;;6200828;28;20343;-74
2021/08/21 06:06:19;;;;;;;4.63;3.03;;;14.70;99.90;;;;;;6201083;28;20248;-76
2021/08/21 06:09:23;;;;;;;2.50;2.30;;;14.80;99.90;;;;;;6199886;28;20204;-76
2021/08/21 06:12:26;;;;;;;4.07;2.60;;;14.80;99.90;;;;;;6199079;28;20205;-75
2021/08/21 06:15:29;;;;;;;4.30;2.77;;;14.90;99.90;;;;;;6181890;28;20256;-76
2021/08/21 06:18:31;;;;;;;3.33;2.70;;;15.00;99.90;;;;;;6198943;28;20193;-75
2021/08/21 06:21:34;;;;;;;2.60;2.40;;;15.10;99.90;;;;;;6199473;28;20202;-75
2021/08/21 06:24:36;;;;;;;2.83;2.50;;;15.20;99.90;;;;;;6199685;28;20215;-76
2021/08/21 06:27:38;;;;;;;2.97;2.70;;;15.30;99.90;;;;;;6198900;28;20189;-75
2021/08/21 06:30:41;;;;;;;2.87;2.57;;;15.40;99.90;;;;;;6199261;28;20229;-77
2021/08/21 06:33:43;;;;;;;2.53;2.20;;;15.50;99.90;;;;;;6199860;28;20339;-76
2021/08/21 06:36:46;;;;;;;3.70;2.57;;;15.60;99.90;;;;;;6200197;28;20620;-75
2021/08/21 06:39:48;;;;;;;3.30;2.60;;;15.70;99.90;;;;;;6182821;28;20202;-75
2021/08/21 06:42:50;;;;;;;3.17;2.30;;;15.80;99.90;;;;;;6198320;28;20233;-76
2021/08/21 06:46:01;;;;;;;3.33;2.33;;;15.90;99.90;;;;;;6177371;28;20229;-75
2021/08/21 06:49:03;;;;;;;4.00;2.87;;;16.00;99.90;;;;;;6194915;28;20189;-75
2021/08/21 06:52:06;;;;;;;3.23;2.93;;;16.10;99.90;;;;;;6198770;28;20185;-76
2021/08/21 06:55:08;;;;;;;2.80;2.60;;;16.20;99.90;;;;;;6198169;28;20217;-75
2021/08/21 06:58:11;;;;;;;4.47;3.00;;;16.30;99.90;;;;;;6198721;28;20210;-75
2021/08/21 07:01:17;;;;;;;3.50;3.20;;;16.40;99.90;;;;;;6199811;28;20198;-76
2021/08/21 07:04:19;;;;;;;3.77;3.13;;;16.50;99.90;;;;;;6181851;28;20660;-76
2021/08/21 07:07:22;;;;;;;3.10;2.87;;;16.70;99.90;;;;;;6198171;28;20259;-76
2021/08/21 07:10:24;;;;;;;2.90;2.70;;;16.90;99.90;;;;;;6198174;28;20789;-75
2021/08/21 07:13:26;;;;;;;3.37;2.60;;;17.10;99.90;;;;;;6198197;28;20665;-75
2021/08/21 07:16:28;;;;;;;6.00;2.70;;;17.40;99.90;;;;;;6188084;28;20205;-76
2021/08/21 07:19:31;;;;;;;4.77;3.27;;;17.60;99.90;;;;;;6189454;28;20198;-75
2021/08/21 07:22:33;;;;;;;3.03;2.70;;;17.90;99.90;;;;;;6199119;28;20274;-77
2021/08/21 07:25:36;;;;;;;3.63;2.83;;;18.30;99.90;;;;;;6191671;28;20221;-76
2021/08/21 07:28:38;;;;;;;2.30;2.10;;;18.60;99.90;;;;;;6174358;28;20197;-77
2021/08/21 07:31:40;;;;;;;3.27;2.97;;;19.00;99.90;;;;;;6196478;28;20570;-77
2021/08/21 07:34:42;;;;;;;3.00;2.47;;;19.30;99.90;;;;;;6198475;28;20685;-76
2021/08/21 07:37:45;;;;;;;3.10;2.73;;;19.60;99.90;;;;;;6198906;28;20216;-77
2021/08/21 07:40:47;;;;;;;3.17;2.67;;;20.00;99.90;;;;;;6197157;28;20229;-76
2021/08/21 07:43:50;;;;;;;2.70;2.37;;;20.40;99.90;;;;;;6197333;28;20287;-77
2021/08/21 07:46:52;;;;;;;2.53;2.33;;;20.70;99.90;;;;;;6185116;28;20202;-77
2021/08/21 07:49:54;;;;;;;2.40;2.17;;;21.10;99.90;;;;;;6183519;28;20269;-77
2021/08/21 07:52:56;;;;;;;3.97;2.10;;;21.50;99.90;;;;;;6197117;28;20339;-77
2021/08/21 07:55:59;;;;;;;2.70;1.80;;;21.90;99.90;;;;;;6180910;28;20197;-77
2021/08/21 07:59:01;;;;;;;2.43;2.23;;;22.30;99.90;;;;;;6198528;28;20193;-77
2021/08/21 08:02:05;;;;;;;3.77;2.00;;;22.60;99.90;;;;;;6196599;28;20549;-77
2021/08/21 08:05:08;;;;;;;2.30;2.10;;;22.90;99.90;;;;;;6196623;28;20284;-76
2021/08/21 08:08:11;;;;;;;3.43;1.90;;;23.30;99.90;;;;;;6196868;28;20197;-77
2021/08/21 08:11:13;;;;;;;2.23;2.07;;;23.60;99.90;;;;;;6196541;28;20296;-77
2021/08/21 08:14:15;;;;;;;2.10;1.90;;;23.90;99.90;;;;;;6189132;28;20208;-76
2021/08/21 08:17:18;;;;;;;2.40;2.00;;;24.10;99.90;;;;;;6180784;28;20276;-76
2021/08/21 08:20:20;;;;;;;2.57;2.20;;;24.30;99.90;;;;;;6196948;28;20335;-76
2021/08/21 08:23:22;;;;;;;2.60;2.23;;;24.60;99.70;;;;;;6195487;28;20201;-76
2021/08/21 08:26:25;;;;;;;2.43;2.23;;;24.90;99.10;;;;;;6197531;28;20648;-76
2021/08/21 08:29:27;;;;;;;2.40;2.20;;;25.10;98.30;;;;;;6196538;28;20284;-77
2021/08/21 08:32:30;;;;;;;2.23;2.03;;;25.40;97.70;;;;;;6197050;28;20233;-77
2021/08/21 08:35:32;;;;;;;2.33;1.93;;;25.60;97.40;;;;;;6197382;28;20236;-77
2021/08/21 08:38:35;;;;;;;2.30;2.10;;;25.90;96.80;;;;;;6195874;28;20748;-77
2021/08/21 08:41:42;;;;;;;2.90;2.22;;;26.10;96.20;;;;;;6195972;28;20240;-76
2021/08/21 08:44:46;;;;;;;2.30;2.10;;;26.20;95.90;;;;;;6196190;28;20194;-77
2021/08/21 08:47:49;;;;;;;2.67;2.30;;;26.40;95.70;;;;;;6178151;28;20697;-77
2021/08/21 08:50:54;;;;;;;2.08;1.95;;;26.50;94.90;;;;;;6195597;28;20216;-76
2021/08/21 08:53:56;;;;;;;2.10;1.90;;;26.40;94.70;;;;;;6197042;28;20532;-76
2021/08/21 08:56:58;;;;;;;2.60;2.40;;;26.30;94.50;;;;;;6195804;28;20208;-76
2021/08/21 09:00:21;;;;;;;2.50;2.28;;;26.60;93.50;;;;;;6197264;28;20200;-77
2021/08/21 09:03:26;;;;;;;4.65;2.42;;;26.70;91.50;;;;;;6195776;28;20625;-77
2021/08/21 09:06:35;;;;;;;3.30;2.15;;;26.70;92.50;;;;;;6180293;28;20229;-77
2021/08/21 09:09:37;;;;;;;2.30;2.10;;;26.70;91.80;;;;;;6172821;28;20289;-77
2021/08/21 09:12:39;;;;;;;2.45;2.25;;;26.90;92.20;;;;;;6171844;28;20198;-77
2021/08/21 09:15:50;;;;;;;2.47;2.15;;;27.20;92.20;;;;;;6184512;28;20678;-77
2021/08/21 09:19:20;;;;;;;3.13;2.00;;;27.50;90.90;;;;;;6176881;28;20190;-77
2021/08/21 09:22:23;;;;;;;2.10;2.00;;;27.90;90.80;;;;;;6197127;28;20252;-77
2021/08/21 09:25:31;;;;;;;2.40;2.20;;;28.10;90.00;;;;;;6173355;28;20218;-77
2021/08/21 09:28:35;;;;;;;3.33;2.40;;;28.40;84.10;;;;;;6195949;28;20190;-77
2021/08/21 09:31:38;;;;;;;2.22;2.03;;;28.50;81.50;;;;;;6195114;28;20205;-77
2021/08/21 09:34:40;;;;;;;2.25;2.03;;;28.60;83.40;;;;;;6195646;28;20264;-77
2021/08/21 09:37:53;;;;;;;4.03;2.35;;;28.40;85.50;;;;;;6196560;28;20595;-77
2021/08/21 09:41:05;;;;;;;3.17;2.50;;;28.30;86.30;;;;;;6194640;28;20571;-77
2021/08/21 09:44:08;;;;;;;2.42;2.22;;;28.50;86.20;;;;;;6196177;28;20197;-78
2021/08/21 09:47:23;;;;;;;2.45;2.20;;;28.70;86.80;;;;;;6184066;28;20213;-77
2021/08/21 09:50:27;;;;;;;2.22;2.00;;;28.90;77.40;;;;;;6196885;28;20190;-78
2021/08/21 09:53:36;;;;;;;2.22;2.05;;;29.10;76.20;;;;;;6196125;28;20193;-77
2021/08/21 09:56:42;;;;;;;2.20;2.00;;;29.10;75.90;;;;;;6199645;28;20323;-77
2021/08/21 09:59:44;;;;;;;1.92;1.83;;;29.40;78.20;;;;;;6199703;28;20217;-78
2021/08/21 10:02:48;;;;;;;2.33;2.05;;;29.70;78.00;;;;;;6196860;28;20549;-77
2021/08/21 10:05:50;;;;;;;2.28;2.10;;;30.00;73.40;;;;;;6197318;28;20903;-77
2021/08/21 10:08:57;;;;;;;2.33;2.05;;;30.30;72.40;;;;;;6199437;28;20225;-77
2021/08/21 10:11:59;;;;;;;2.58;2.38;;;30.20;65.90;;;;;;6200999;28;20268;-77
2021/08/21 10:15:03;;;;;;;3.83;2.00;;;30.20;63.20;;;;;;6200250;28;20212;-78
2021/08/21 10:18:08;;;;;;;2.22;2.03;;;30.50;67.00;;;;;;6186170;28;20562;-78
2021/08/21 10:21:12;;;;;;;2.50;2.28;;;30.70;61.80;;;;;;6200790;28;20189;-77
2021/08/21 10:24:40;;;;;;;2.38;2.17;;;30.70;61.10;;;;;;6198987;28;20198;-77
2021/08/21 10:27:56;;;;;;;2.78;2.17;;;30.20;60.00;;;;;;6200397;28;20229;-77
2021/08/21 10:30:59;;;;;;;2.05;1.95;;;29.70;60.90;;;;;;6189536;28;20202;-77
2021/08/21 10:34:02;;;;;;;2.58;2.15;;;29.20;65.60;;;;;;6200413;28;20668;-77
2021/08/21 10:37:04;;;;;;;4.50;3.33;;;28.90;69.10;;;;;;6198845;28;20247;-77
2021/08/21 10:40:25;;;;;;;4.68;3.40;;;28.70;67.70;;;;;;6200285;28;20781;-77
2021/08/21 10:43:47;;;;;;;2.60;2.40;;;28.40;65.70;;;;;;6182440;28;20229;-77
2021/08/21 10:46:51;;;;;;;3.47;2.40;;;29.10;67.80;;;;;;6192125;28;20252;-77
2021/08/21 10:49:53;;;;;;;4.13;3.47;;;29.70;67.70;;;;;;6174293;28;20205;-77
2021/08/21 10:53:00;;;;;;;2.67;2.40;;;30.20;62.40;;;;;;6174319;28;20225;-77
2021/08/21 10:56:04;;;;;;;3.53;2.40;;;30.70;65.60;;;;;;6174393;28;20175;-77
2021/08/21 10:59:06;;;;;;;2.72;2.10;;;30.70;61.20;;;;;;6174386;28;20190;-77
2021/08/21 11:02:21;;;;;;;2.92;2.53;;;30.80;63.90;;;;;;6174361;28;20552;-77
2021/08/21 11:06:04;;;;;;;2.80;2.50;;;30.60;61.70;;;;;;6172459;28;20651;-77
2021/08/21 11:09:09;;;;;;;3.75;2.40;;;30.00;59.80;;;;;;6181687;28;20210;-77
2021/08/21 11:12:35;;;;;;;3.05;2.85;;;29.50;63.00;;;;;;6193293;28;20190;-76
2021/08/21 11:15:38;;;;;;;2.53;2.30;;;29.20;65.10;;;;;;6186611;28;20639;-78
2021/08/21 11:18:51;;;;;;;3.08;2.50;;;29.20;68.60;;;;;;6178074;28;20186;-78
2021/08/21 11:22:18;;;;;;;2.33;2.13;;;29.60;70.40;;;;;;6197377;28;20687;-77
2021/08/21 11:25:25;;;;;;;2.45;2.28;;;29.80;69.20;;;;;;6197255;28;20193;-79
2021/08/21 11:28:30;;;;;;;2.97;2.30;;;29.70;69.00;;;;;;6196491;28;20292;-78
2021/08/21 11:31:53;;;;;;;3.42;2.50;;;29.50;70.80;;;;;;6198244;28;20173;-79
2021/08/21 11:34:57;;;;;;;5.00;3.17;;;29.70;72.60;;;;;;6196932;28;20352;-78
2021/08/21 11:38:00;;;;;;;3.03;2.70;;;29.50;62.60;;;;;;6179644;28;20201;-78
2021/08/21 11:41:15;;;;;;;3.08;2.83;;;29.50;61.60;;;;;;6197868;28;20186;-78
2021/08/21 11:44:35;;;;;;;3.63;2.58;;;29.70;60.30;;;;;;6198486;28;20613;-79
2021/08/21 11:47:38;;;;;;;2.83;2.63;;;29.80;59.40;;;;;;6181364;28;20792;-83
2021/08/21 11:50:42;;;;;;;3.05;2.70;;;29.90;58.30;;;;;;6198495;28;20197;-81
2021/08/21 11:53:44;;;;;;;2.78;2.58;;;30.30;59.30;;;;;;6189738;28;20260;-81
2021/08/21 11:57:05;;;;;;;5.05;2.08;;;31.00;59.60;;;;;;6164853;28;20205;-79
2021/08/21 12:00:16;;;;;;;2.60;2.40;;;31.80;57.80;;;;;;6197341;28;20268;-80
2021/08/21 12:03:33;;;;;;;3.13;2.70;;;32.30;57.10;;;;;;6197467;28;20173;-81
2021/08/21 12:06:36;;;;;;;2.97;2.70;;;31.80;55.30;;;;;;6198312;28;20210;-78
2021/08/21 12:09:57;;;;;;;2.60;2.40;;;30.70;55.70;;;;;;6197046;28;20584;-76
2021/08/21 12:12:59;;;;;;;3.63;2.55;;;29.90;58.10;;;;;;6196421;28;20280;-80
2021/08/21 12:16:17;;;;;;;2.33;2.13;;;29.50;60.60;;;;;;6176871;28;20197;-80
2021/08/21 12:19:21;;;;;;;2.75;2.55;;;29.20;64.10;;;;;;6192205;28;20579;-83
2021/08/21 12:22:23;;;;;;;2.90;2.30;;;29.00;65.50;;;;;;6197610;28;20288;-79
2021/08/21 12:25:43;;;;;;;4.38;2.70;;;29.20;66.50;;;;;;6179875;28;20208;-78
2021/08/21 12:28:46;;;;;;;3.47;2.70;;;29.60;67.00;;;;;;6196768;28;20186;-81
2021/08/21 12:31:50;;;;;;;2.80;2.60;;;29.90;60.50;;;;;;6197967;28;20213;-79
2021/08/21 12:35:30;;;;;;;3.15;2.40;;;30.30;57.50;;;;;;6180686;28;20276;-80
2021/08/21 12:38:33;;;;;;;4.90;2.83;;;30.90;60.90;;;;;;6196243;28;20344;-79
2021/08/21 12:41:51;;;;;;;4.88;2.63;;;31.20;55.70;;;;;;6200022;28;20709;-78
2021/08/21 12:44:54;;;;;;;2.63;2.42;;;31.20;55.90;;;;;;6203221;28;20609;-74
2021/08/21 12:48:07;;;;;;;2.50;2.30;;;31.30;54.60;;;;;;6178096;28;20206;-80
2021/08/21 12:51:40;;;;;;;2.63;2.42;;;31.40;53.70;;;;;;6208928;28;20217;-80
2021/08/21 12:54:44;;;;;;;2.67;2.17;;;31.90;53.90;;;;;;6184706;28;20288;-80
2021/08/21 12:57:46;;;;;;;2.35;2.25;;;32.30;54.00;;;;;;6199097;28;20212;-78
2021/08/21 13:00:49;;;;;;;2.28;2.08;;;32.60;52.40;;;;;;6183564;28;20300;-79
2021/08/21 13:04:09;;;;;;;2.67;2.33;;;32.30;51.00;;;;;;6196291;28;20197;-78
2021/08/21 13:07:12;;;;;;;2.95;2.40;;;32.50;51.20;;;;;;6196741;28;20249;-79
2021/08/21 13:10:20;;;;;;;2.40;2.25;;;32.70;51.10;;;;;;6179747;28;20199;-78
2021/08/21 13:13:23;;;;;;;2.97;2.30;;;33.10;52.50;;;;;;6195141;28;20201;-78
2021/08/21 13:16:25;;;;;;;2.72;2.53;;;33.50;55.40;;;;;;6179454;28;20276;-79
2021/08/21 13:19:27;;;;;;;2.33;1.90;;;34.00;52.60;;;;;;6197005;28;20275;-79
2021/08/21 13:22:30;;;;;;;3.58;2.40;;;34.30;52.10;;;;;;6195197;28;20300;-79
2021/08/21 13:25:32;;;;;;;2.40;2.20;;;34.30;51.70;;;;;;6195461;28;20198;-78
2021/08/21 13:28:35;;;;;;;2.30;2.10;;;34.10;48.80;;;;;;6195127;28;20283;-79
2021/08/21 13:31:37;;;;;;;2.65;1.98;;;34.20;48.20;;;;;;6200370;28;20249;-78
2021/08/21 13:34:40;;;;;;;2.63;2.42;;;34.70;49.50;;;;;;6183403;28;20228;-78
2021/08/21 13:37:42;;;;;;;4.28;2.15;;;34.80;47.70;;;;;;6160086;28;20233;-79
2021/08/21 13:40:44;;;;;;;1.90;1.80;;;34.70;48.30;;;;;;6183118;28;20201;-79
2021/08/21 13:43:47;;;;;;;2.60;2.05;;;34.40;49.80;;;;;;6198772;28;20225;-78
2021/08/21 13:46:49;;;;;;;2.17;2.05;;;33.90;49.40;;;;;;6192495;28;20213;-79
2021/08/21 13:49:51;;;;;;;3.53;2.08;;;33.20;51.50;;;;;;6197445;28;20217;-79
2021/08/21 13:52:54;;;;;;;1.95;1.85;;;32.60;54.70;;;;;;6200661;28;20197;-78
2021/08/21 13:55:56;;;;;;;2.33;2.13;;;32.10;56.30;;;;;;6199704;28;20197;-78
2021/08/21 13:58:59;;;;;;;5.70;2.25;;;31.40;58.40;;;;;;6180864;28;20441;-78
2021/08/21 14:02:01;;;;;;;2.70;1.92;;;30.80;60.20;;;;;;6190972;28;20561;-78
2021/08/21 14:05:04;;;;;;;3.83;2.30;;;30.40;61.80;;;;;;6200475;28;20552;-78
2021/08/21 14:08:06;;;;;;;4.18;2.58;;;30.00;62.60;;;;;;6199533;28;20202;-78
2021/08/21 14:11:09;;;;;;;2.92;2.13;;;29.60;64.00;;;;;;6199596;28;20317;-79
2021/08/21 14:14:12;;;;;;;3.72;2.17;;;29.40;65.20;;;;;;6196056;28;20197;-78
2021/08/21 14:17:14;;;;;;;2.78;2.15;;;29.60;66.20;;;;;;6183189;28;20242;-77
2021/08/21 14:20:16;;;;;;;2.60;2.30;;;29.90;65.40;;;;;;6198936;28;20282;-78
2021/08/21 14:23:19;;;;;;;2.03;1.83;;;30.20;63.60;;;;;;6191116;28;20210;-78
2021/08/21 14:26:21;;;;;;;2.30;2.10;;;30.70;59.60;;;;;;6192522;28;20575;-78
2021/08/21 14:29:23;;;;;;;4.30;2.28;;;31.20;59.10;;;;;;6200489;28;20194;-78
2021/08/21 14:32:26;;;;;;;2.60;1.98;;;31.40;59.70;;;;;;6182838;28;20204;-77
2021/08/21 14:35:28;;;;;;;3.70;2.05;;;32.10;59.20;;;;;;6199267;28;20300;-78
2021/08/21 14:38:31;;;;;;;3.60;2.45;;;33.00;55.70;;;;;;6193690;28;20763;-78
2021/08/21 14:41:35;;;;;;;3.17;1.85;;;33.90;53.60;;;;;;6179228;28;20588;-78
2021/08/21 14:44:38;;;;;;;3.88;2.25;;;34.70;52.30;;;;;;6190275;28;20206;-78
2021/08/21 14:47:40;;;;;;;2.10;2.00;;;35.30;50.80;;;;;;6196945;28;20339;-78
2021/08/21 14:50:42;;;;;;;4.85;2.22;;;35.70;50.40;;;;;;6196781;28;20197;-78
2021/08/21 14:53:47;;;;;;;3.10;2.17;;;35.80;49.90;;;;;;6192735;28;20571;-78
2021/08/21 14:56:49;;;;;;;3.55;2.10;;;35.70;48.30;;;;;;6179619;28;20205;-77
2021/08/21 14:59:52;;;;;;;2.40;2.10;;;35.50;48.20;;;;;;6197355;28;20208;-77
2021/08/21 15:02:54;;;;;;;2.45;2.25;;;35.50;48.40;;;;;;6178453;28;20976;-78
2021/08/21 15:05:57;;;;;;;4.40;2.58;;;35.50;49.10;;;;;;6191212;28;20284;-78
2021/08/21 15:09:00;;;;;;;2.88;2.10;;;35.30;50.10;;;;;;6197477;28;20295;-77
2021/08/21 15:12:05;;;;;;;2.60;2.25;;;34.80;51.00;;;;;;6629868;22;1296041;-77
2021/08/21 15:15:08;;;;;;;2.30;1.92;;;34.70;52.50;;;;;;6246101;28;20663;-78
2021/08/21 15:18:12;;;;;;;4.82;2.42;;;34.60;52.10;;;;;;6229207;28;20203;-76
2021/08/21 15:21:15;;;;;;;3.22;1.88;;;34.50;52.60;;;;;;6229238;28;20223;-77
2021/08/21 15:24:17;;;;;;;3.75;2.10;;;34.60;52.90;;;;;;6247073;28;20215;-76
2021/08/21 15:27:20;;;;;;;2.30;2.10;;;34.90;52.40;;;;;;6229502;28;20208;-77
2021/08/21 15:30:22;;;;;;;3.95;2.30;;;35.10;51.30;;;;;;6229630;28;20588;-77
2021/08/21 15:33:28;;;;;;;2.28;1.77;;;34.90;51.90;;;;;;6245109;28;20206;-76
2021/08/21 15:36:30;;;;;;;2.40;2.20;;;34.80;51.60;;;;;;6246057;28;20250;-77
2021/08/21 15:39:34;;;;;;;4.88;2.08;;;34.50;52.00;;;;;;6228752;28;20605;-77
2021/08/21 15:42:37;;;;;;;3.78;2.08;;;34.00;51.80;;;;;;6229429;28;20553;-76
2021/08/21 15:45:42;;;;;;;5.47;2.75;;;33.00;53.60;;;;;;6245879;28;20634;-76
2021/08/21 15:48:51;;;;;;;3.00;2.25;;;31.80;55.20;;;;;;6244747;28;20302;-76
2021/08/21 15:51:59;;;;;;;2.65;2.20;;;30.50;57.20;;;;;;6245336;28;20187;-76
2021/08/21 15:55:10;;;;;;;3.30;2.40;;;29.50;59.10;;;;;;6246255;28;20188;-76
2021/08/21 15:58:17;;;;;;;2.65;2.13;;;28.70;61.30;;;;;;6243671;28;20342;-76
2021/08/21 16:01:20;;;;;;;4.13;2.15;;;28.10;63.20;;;;;;6227307;28;20271;-76
2021/08/21 16:04:23;;;;;;;2.72;2.15;;;27.50;65.00;;;;;;6245432;28;20195;-74
2021/08/21 16:07:26;;;;;;;4.18;2.42;;;27.10;66.80;;;;;;6246322;28;20697;-74